sensor_id;sensor_type;location;lat;lon;timestamp;P1;durP1;ratioP1;P2;durP2;ratioP2
30173;SDS011;16985;50.814;8.530;2023-02-22T00:00:53;29.60;;;15.10;;
30173;SDS011;16985;50.814;8.530;2023-02-22T00:03:25;32.75;;;15.07;;
30173;SDS011;16985;50.814;8.530;2023-02-22T00:06:00;24.75;;;14.35;;
30173;SDS011;16985;50.814;8.530;2023-02-22T00:08:36;24.55;;;13.88;;
30173;SDS011;16985;50.814;8.530;2023-02-22T00:11:03;27.60;;;14.68;;
30173;SDS011;16985;50.814;8.530;2023-02-22T00:13:32;26.63;;;14.25;;
30173;SDS011;16985;50.814;8.530;2023-02-22T00:16:00;21.52;;;12.23;;
30173;SDS011;16985;50.814;8.530;2023-02-22T00:18:26;19.67;;;12.15;;
30173;SDS011;16985;50.814;8.530;2023-02-22T00:20:57;21.05;;;10.35;;
30173;SDS011;16985;50.814;8.530;2023-02-22T00:23:25;23.42;;;11.57;;
30173;SDS011;16985;50.814;8.530;2023-02-22T00:25:54;20.67;;;11.40;;
30173;SDS011;16985;50.814;8.530;2023-02-22T00:28:21;21.58;;;11.05;;
30173;SDS011;16985;50.814;8.530;2023-02-22T00:30:50;18.42;;;11.15;;
30173;SDS011;16985;50.814;8.530;2023-02-22T00:33:19;21.20;;;11.23;;
30173;SDS011;16985;50.814;8.530;2023-02-22T00:35:45;19.50;;;10.45;;
30173;SDS011;16985;50.814;8.530;2023-02-22T00:38:12;23.63;;;12.55;;
30173;SDS011;16985;50.814;8.530;2023-02-22T00:40:41;19.45;;;10.25;;
30173;SDS011;16985;50.814;8.530;2023-02-22T00:43:07;20.13;;;11.02;;
30173;SDS011;16985;50.814;8.530;2023-02-22T00:45:34;20.80;;;10.98;;
30173;SDS011;16985;50.814;8.530;2023-02-22T00:48:01;16.80;;;9.60;;
30173;SDS011;16985;50.814;8.530;2023-02-22T00:50:29;19.15;;;10.52;;
30173;SDS011;16985;50.814;8.530;2023-02-22T00:52:57;19.48;;;10.43;;
30173;SDS011;16985;50.814;8.530;2023-02-22T00:57:53;18.27;;;10.52;;
30173;SDS011;16985;50.814;8.530;2023-02-22T01:00:27;20.08;;;11.52;;
30173;SDS011;16985;50.814;8.530;2023-02-22T01:03:01;18.35;;;10.88;;
30173;SDS011;16985;50.814;8.530;2023-02-22T01:05:29;23.92;;;12.60;;
30173;SDS011;16985;50.814;8.530;2023-02-22T01:07:56;19.50;;;10.90;;
30173;SDS011;16985;50.814;8.530;2023-02-22T01:10:24;19.40;;;11.27;;
30173;SDS011;16985;50.814;8.530;2023-02-22T01:15:19;19.77;;;9.85;;
30173;SDS011;16985;50.814;8.530;2023-02-22T01:17:48;22.27;;;11.15;;
30173;SDS011;16985;50.814;8.530;2023-02-22T01:20:17;22.13;;;11.50;;
30173;SDS011;16985;50.814;8.530;2023-02-22T01:22:47;27.00;;;12.00;;
30173;SDS011;16985;50.814;8.530;2023-02-22T01:25:15;21.95;;;10.70;;
30173;SDS011;16985;50.814;8.530;2023-02-22T01:27:45;21.73;;;11.15;;
30173;SDS011;16985;50.814;8.530;2023-02-22T01:30:12;19.25;;;10.40;;
30173;SDS011;16985;50.814;8.530;2023-02-22T01:32:40;18.67;;;10.43;;
30173;SDS011;16985;50.814;8.530;2023-02-22T01:35:07;21.10;;;10.70;;
30173;SDS011;16985;50.814;8.530;2023-02-22T01:37:39;20.17;;;10.40;;
30173;SDS011;16985;50.814;8.530;2023-02-22T01:40:07;20.48;;;10.65;;
30173;SDS011;16985;50.814;8.530;2023-02-22T01:42:40;24.52;;;11.00;;
30173;SDS011;16985;50.814;8.530;2023-02-22T01:53:04;18.20;;;9.73;;
30173;SDS011;16985;50.814;8.530;2023-02-22T01:55:32;23.50;;;10.75;;
30173;SDS011;16985;50.814;8.530;2023-02-22T01:58:00;21.45;;;10.70;;
30173;SDS011;16985;50.814;8.530;2023-02-22T02:00:27;22.27;;;11.52;;
30173;SDS011;16985;50.814;8.530;2023-02-22T02:03:01;25.33;;;11.18;;
30173;SDS011;16985;50.814;8.530;2023-02-22T02:05:33;26.50;;;10.70;;
30173;SDS011;16985;50.814;8.530;2023-02-22T02:08:04;28.55;;;11.82;;
30173;SDS011;16985;50.814;8.530;2023-02-22T02:10:56;24.85;;;10.75;;
30173;SDS011;16985;50.814;8.530;2023-02-22T02:13:24;25.07;;;11.73;;
30173;SDS011;16985;50.814;8.530;2023-02-22T02:15:53;27.92;;;12.20;;
30173;SDS011;16985;50.814;8.530;2023-02-22T02:18:20;23.10;;;10.55;;
30173;SDS011;16985;50.814;8.530;2023-02-22T02:30:16;27.85;;;11.70;;
30173;SDS011;16985;50.814;8.530;2023-02-22T02:33:41;32.58;;;12.45;;
30173;SDS011;16985;50.814;8.530;2023-02-22T02:41:48;33.83;;;12.35;;
30173;SDS011;16985;50.814;8.530;2023-02-22T02:49:36;27.30;;;12.02;;
30173;SDS011;16985;50.814;8.530;2023-02-22T02:52:25;30.38;;;11.77;;
30173;SDS011;16985;50.814;8.530;2023-02-22T02:54:53;31.30;;;13.15;;
30173;SDS011;16985;50.814;8.530;2023-02-22T02:57:20;31.23;;;13.90;;
30173;SDS011;16985;50.814;8.530;2023-02-22T02:59:46;27.38;;;12.15;;
30173;SDS011;16985;50.814;8.530;2023-02-22T03:05:35;26.65;;;10.93;;
30173;SDS011;16985;50.814;8.530;2023-02-22T03:11:04;27.67;;;11.43;;
30173;SDS011;16985;50.814;8.530;2023-02-22T03:18:55;29.02;;;12.48;;
30173;SDS011;16985;50.814;8.530;2023-02-22T03:21:35;26.58;;;12.93;;
30173;SDS011;16985;50.814;8.530;2023-02-22T03:27:28;23.67;;;11.65;;
30173;SDS011;16985;50.814;8.530;2023-02-22T03:32:45;28.98;;;12.70;;
30173;SDS011;16985;50.814;8.530;2023-02-22T03:35:20;27.17;;;11.88;;
30173;SDS011;16985;50.814;8.530;2023-02-22T03:37:53;29.13;;;11.70;;
30173;SDS011;16985;50.814;8.530;2023-02-22T03:40:26;24.60;;;11.20;;
30173;SDS011;16985;50.814;8.530;2023-02-22T03:43:05;29.02;;;11.75;;
30173;SDS011;16985;50.814;8.530;2023-02-22T03:45:39;28.83;;;12.02;;
30173;SDS011;16985;50.814;8.530;2023-02-22T03:51:08;29.25;;;12.48;;
30173;SDS011;16985;50.814;8.530;2023-02-22T03:53:42;26.70;;;11.40;;
30173;SDS011;16985;50.814;8.530;2023-02-22T03:56:10;23.50;;;11.40;;
30173;SDS011;16985;50.814;8.530;2023-02-22T03:58:44;27.13;;;12.05;;
30173;SDS011;16985;50.814;8.530;2023-02-22T04:01:14;26.73;;;11.30;;
30173;SDS011;16985;50.814;8.530;2023-02-22T04:03:41;24.95;;;11.70;;
30173;SDS011;16985;50.814;8.530;2023-02-22T04:06:08;24.90;;;11.50;;
30173;SDS011;16985;50.814;8.530;2023-02-22T04:08:34;24.80;;;11.52;;
30173;SDS011;16985;50.814;8.530;2023-02-22T04:11:00;29.77;;;11.55;;
30173;SDS011;16985;50.814;8.530;2023-02-22T04:13:27;26.48;;;11.70;;
30173;SDS011;16985;50.814;8.530;2023-02-22T04:15:53;29.52;;;11.40;;
30173;SDS011;16985;50.814;8.530;2023-02-22T04:18:19;23.73;;;11.10;;
30173;SDS011;16985;50.814;8.530;2023-02-22T04:20:46;25.30;;;11.07;;
30173;SDS011;16985;50.814;8.530;2023-02-22T04:23:21;27.30;;;11.45;;
30173;SDS011;16985;50.814;8.530;2023-02-22T04:25:47;27.63;;;11.52;;
30173;SDS011;16985;50.814;8.530;2023-02-22T04:28:15;28.30;;;11.82;;
30173;SDS011;16985;50.814;8.530;2023-02-22T04:31:04;24.75;;;11.55;;
30173;SDS011;16985;50.814;8.530;2023-02-22T04:33:30;25.85;;;11.48;;
30173;SDS011;16985;50.814;8.530;2023-02-22T04:35:57;21.15;;;10.52;;
30173;SDS011;16985;50.814;8.530;2023-02-22T04:38:23;28.40;;;11.45;;
30173;SDS011;16985;50.814;8.530;2023-02-22T04:40:52;22.77;;;10.38;;
30173;SDS011;16985;50.814;8.530;2023-02-22T04:43:19;23.53;;;10.87;;
30173;SDS011;16985;50.814;8.530;2023-02-22T04:45:48;27.70;;;12.43;;
30173;SDS011;16985;50.814;8.530;2023-02-22T04:48:13;22.83;;;11.93;;
30173;SDS011;16985;50.814;8.530;2023-02-22T04:50:39;27.42;;;13.70;;
30173;SDS011;16985;50.814;8.530;2023-02-22T04:53:05;31.85;;;14.27;;
30173;SDS011;16985;50.814;8.530;2023-02-22T04:55:33;31.23;;;12.80;;
30173;SDS011;16985;50.814;8.530;2023-02-22T04:58:01;29.00;;;12.52;;
30173;SDS011;16985;50.814;8.530;2023-02-22T05:00:26;23.90;;;12.50;;
30173;SDS011;16985;50.814;8.530;2023-02-22T05:02:57;23.08;;;11.77;;
30173;SDS011;16985;50.814;8.530;2023-02-22T05:05:23;25.27;;;12.45;;
30173;SDS011;16985;50.814;8.530;2023-02-22T05:07:49;23.17;;;12.68;;
30173;SDS011;16985;50.814;8.530;2023-02-22T05:10:15;22.48;;;11.75;;
30173;SDS011;16985;50.814;8.530;2023-02-22T05:12:41;22.65;;;13.10;;
30173;SDS011;16985;50.814;8.530;2023-02-22T05:15:07;19.63;;;12.23;;
30173;SDS011;16985;50.814;8.530;2023-02-22T05:17:33;21.13;;;12.40;;
30173;SDS011;16985;50.814;8.530;2023-02-22T05:20:00;18.55;;;11.20;;
30173;SDS011;16985;50.814;8.530;2023-02-22T05:22:28;21.67;;;12.25;;
30173;SDS011;16985;50.814;8.530;2023-02-22T05:24:54;26.23;;;12.50;;
30173;SDS011;16985;50.814;8.530;2023-02-22T05:27:21;22.92;;;12.15;;
30173;SDS011;16985;50.814;8.530;2023-02-22T05:29:47;22.00;;;13.07;;
30173;SDS011;16985;50.814;8.530;2023-02-22T05:32:12;22.45;;;13.05;;
30173;SDS011;16985;50.814;8.530;2023-02-22T05:34:38;25.15;;;15.20;;
30173;SDS011;16985;50.814;8.530;2023-02-22T05:37:04;33.38;;;14.40;;
30173;SDS011;16985;50.814;8.530;2023-02-22T05:39:30;27.33;;;15.48;;
30173;SDS011;16985;50.814;8.530;2023-02-22T05:41:56;23.55;;;13.73;;
30173;SDS011;16985;50.814;8.530;2023-02-22T05:44:23;25.25;;;15.38;;
30173;SDS011;16985;50.814;8.530;2023-02-22T05:46:49;28.10;;;16.02;;
30173;SDS011;16985;50.814;8.530;2023-02-22T05:49:14;36.45;;;17.02;;
30173;SDS011;16985;50.814;8.530;2023-02-22T05:51:40;29.25;;;15.95;;
30173;SDS011;16985;50.814;8.530;2023-02-22T05:54:06;31.67;;;16.48;;
30173;SDS011;16985;50.814;8.530;2023-02-22T05:56:32;30.48;;;16.60;;
30173;SDS011;16985;50.814;8.530;2023-02-22T05:58:58;29.73;;;14.95;;
30173;SDS011;16985;50.814;8.530;2023-02-22T06:01:24;34.50;;;15.90;;
30173;SDS011;16985;50.814;8.530;2023-02-22T06:03:51;28.02;;;15.45;;
30173;SDS011;16985;50.814;8.530;2023-02-22T06:06:17;28.70;;;13.60;;
30173;SDS011;16985;50.814;8.530;2023-02-22T06:08:44;31.13;;;15.13;;
30173;SDS011;16985;50.814;8.530;2023-02-22T06:11:11;28.60;;;14.80;;
30173;SDS011;16985;50.814;8.530;2023-02-22T06:13:37;26.27;;;12.80;;
30173;SDS011;16985;50.814;8.530;2023-02-22T06:16:04;25.85;;;13.77;;
30173;SDS011;16985;50.814;8.530;2023-02-22T06:18:30;27.70;;;13.85;;
30173;SDS011;16985;50.814;8.530;2023-02-22T06:20:56;27.00;;;13.55;;
30173;SDS011;16985;50.814;8.530;2023-02-22T06:23:23;30.23;;;14.68;;
30173;SDS011;16985;50.814;8.530;2023-02-22T06:25:50;25.45;;;14.05;;
30173;SDS011;16985;50.814;8.530;2023-02-22T06:28:16;29.10;;;14.13;;
30173;SDS011;16985;50.814;8.530;2023-02-22T06:30:41;27.95;;;13.75;;
30173;SDS011;16985;50.814;8.530;2023-02-22T06:33:08;25.08;;;12.50;;
30173;SDS011;16985;50.814;8.530;2023-02-22T06:35:35;28.75;;;15.15;;
30173;SDS011;16985;50.814;8.530;2023-02-22T06:38:01;28.38;;;14.43;;
30173;SDS011;16985;50.814;8.530;2023-02-22T06:40:27;31.58;;;15.07;;
30173;SDS011;16985;50.814;8.530;2023-02-22T06:42:53;27.67;;;13.25;;
30173;SDS011;16985;50.814;8.530;2023-02-22T06:45:21;29.55;;;14.38;;
30173;SDS011;16985;50.814;8.530;2023-02-22T06:47:47;26.58;;;13.98;;
30173;SDS011;16985;50.814;8.530;2023-02-22T06:50:31;29.65;;;14.40;;
30173;SDS011;16985;50.814;8.530;2023-02-22T06:52:58;26.52;;;13.43;;
30173;SDS011;16985;50.814;8.530;2023-02-22T06:55:25;32.85;;;15.10;;
30173;SDS011;16985;50.814;8.530;2023-02-22T06:57:53;30.60;;;13.75;;
30173;SDS011;16985;50.814;8.530;2023-02-22T07:00:20;27.80;;;14.23;;
30173;SDS011;16985;50.814;8.530;2023-02-22T07:02:51;27.55;;;13.48;;
30173;SDS011;16985;50.814;8.530;2023-02-22T07:05:19;29.88;;;14.05;;
30173;SDS011;16985;50.814;8.530;2023-02-22T07:07:46;31.58;;;13.23;;
30173;SDS011;16985;50.814;8.530;2023-02-22T07:10:16;30.08;;;13.70;;
30173;SDS011;16985;50.814;8.530;2023-02-22T07:12:46;26.80;;;11.90;;
30173;SDS011;16985;50.814;8.530;2023-02-22T07:15:13;24.80;;;12.38;;
30173;SDS011;16985;50.814;8.530;2023-02-22T07:17:42;21.83;;;12.23;;
30173;SDS011;16985;50.814;8.530;2023-02-22T07:20:08;30.27;;;13.32;;
30173;SDS011;16985;50.814;8.530;2023-02-22T07:22:36;25.67;;;12.18;;
30173;SDS011;16985;50.814;8.530;2023-02-22T07:25:03;24.93;;;11.03;;
30173;SDS011;16985;50.814;8.530;2023-02-22T07:27:37;27.98;;;11.90;;
30173;SDS011;16985;50.814;8.530;2023-02-22T07:30:06;28.48;;;14.18;;
30173;SDS011;16985;50.814;8.530;2023-02-22T07:32:44;22.00;;;10.85;;
30173;SDS011;16985;50.814;8.530;2023-02-22T07:35:21;24.77;;;11.45;;
30173;SDS011;16985;50.814;8.530;2023-02-22T07:37:52;21.15;;;10.93;;
30173;SDS011;16985;50.814;8.530;2023-02-22T07:40:18;27.38;;;12.10;;
30173;SDS011;16985;50.814;8.530;2023-02-22T07:42:59;25.13;;;12.68;;
30173;SDS011;16985;50.814;8.530;2023-02-22T07:45:36;24.10;;;12.13;;
30173;SDS011;16985;50.814;8.530;2023-02-22T07:48:03;29.30;;;16.73;;
30173;SDS011;16985;50.814;8.530;2023-02-22T07:50:31;33.28;;;18.83;;
30173;SDS011;16985;50.814;8.530;2023-02-22T07:52:59;37.93;;;21.07;;
30173;SDS011;16985;50.814;8.530;2023-02-22T07:55:29;42.33;;;23.88;;
30173;SDS011;16985;50.814;8.530;2023-02-22T07:57:57;35.00;;;19.67;;
30173;SDS011;16985;50.814;8.530;2023-02-22T08:00:29;38.03;;;20.45;;
30173;SDS011;16985;50.814;8.530;2023-02-22T08:02:58;33.60;;;17.80;;
30173;SDS011;16985;50.814;8.530;2023-02-22T08:05:26;33.30;;;17.02;;
30173;SDS011;16985;50.814;8.530;2023-02-22T08:07:53;28.58;;;16.27;;
30173;SDS011;16985;50.814;8.530;2023-02-22T08:10:21;28.50;;;15.90;;
30173;SDS011;16985;50.814;8.530;2023-02-22T08:12:51;29.85;;;15.55;;
30173;SDS011;16985;50.814;8.530;2023-02-22T08:15:20;24.88;;;13.82;;
30173;SDS011;16985;50.814;8.530;2023-02-22T08:17:52;26.10;;;14.73;;
30173;SDS011;16985;50.814;8.530;2023-02-22T08:20:19;23.98;;;13.23;;
30173;SDS011;16985;50.814;8.530;2023-02-22T08:22:46;23.20;;;12.90;;
30173;SDS011;16985;50.814;8.530;2023-02-22T08:25:12;26.40;;;14.07;;
30173;SDS011;16985;50.814;8.530;2023-02-22T08:27:41;23.25;;;11.90;;
30173;SDS011;16985;50.814;8.530;2023-02-22T08:30:10;22.80;;;11.40;;
30173;SDS011;16985;50.814;8.530;2023-02-22T08:32:47;22.02;;;11.25;;
30173;SDS011;16985;50.814;8.530;2023-02-22T08:35:14;21.67;;;10.68;;
30173;SDS011;16985;50.814;8.530;2023-02-22T08:37:46;18.88;;;11.80;;
30173;SDS011;16985;50.814;8.530;2023-02-22T08:40:27;15.65;;;8.70;;
30173;SDS011;16985;50.814;8.530;2023-02-22T08:42:55;18.38;;;9.73;;
30173;SDS011;16985;50.814;8.530;2023-02-22T08:45:21;16.58;;;9.85;;
30173;SDS011;16985;50.814;8.530;2023-02-22T08:47:48;16.23;;;8.60;;
30173;SDS011;16985;50.814;8.530;2023-02-22T08:50:15;21.88;;;10.77;;
30173;SDS011;16985;50.814;8.530;2023-02-22T08:52:52;19.67;;;10.63;;
30173;SDS011;16985;50.814;8.530;2023-02-22T08:55:20;21.73;;;10.98;;
30173;SDS011;16985;50.814;8.530;2023-02-22T08:57:47;17.38;;;10.52;;
30173;SDS011;16985;50.814;8.530;2023-02-22T09:00:15;18.90;;;9.93;;
30173;SDS011;16985;50.814;8.530;2023-02-22T09:02:43;17.77;;;10.68;;
30173;SDS011;16985;50.814;8.530;2023-02-22T09:05:08;19.27;;;10.77;;
30173;SDS011;16985;50.814;8.530;2023-02-22T09:07:34;24.13;;;11.88;;
30173;SDS011;16985;50.814;8.530;2023-02-22T09:10:03;19.02;;;9.90;;
30173;SDS011;16985;50.814;8.530;2023-02-22T09:12:29;21.55;;;10.38;;
30173;SDS011;16985;50.814;8.530;2023-02-22T09:14:55;18.83;;;10.23;;
30173;SDS011;16985;50.814;8.530;2023-02-22T09:17:21;16.98;;;10.05;;
30173;SDS011;16985;50.814;8.530;2023-02-22T09:19:47;19.38;;;10.30;;
30173;SDS011;16985;50.814;8.530;2023-02-22T09:22:12;20.38;;;10.00;;
30173;SDS011;16985;50.814;8.530;2023-02-22T09:24:38;17.75;;;10.25;;
30173;SDS011;16985;50.814;8.530;2023-02-22T09:27:04;19.02;;;10.25;;
30173;SDS011;16985;50.814;8.530;2023-02-22T09:29:31;19.40;;;10.77;;
30173;SDS011;16985;50.814;8.530;2023-02-22T09:31:57;22.55;;;10.43;;
30173;SDS011;16985;50.814;8.530;2023-02-22T09:34:24;19.38;;;10.38;;
30173;SDS011;16985;50.814;8.530;2023-02-22T09:36:54;20.73;;;10.63;;
30173;SDS011;16985;50.814;8.530;2023-02-22T09:39:21;19.67;;;11.00;;
30173;SDS011;16985;50.814;8.530;2023-02-22T09:41:50;20.02;;;9.82;;
30173;SDS011;16985;50.814;8.530;2023-02-22T09:44:35;20.60;;;11.18;;
30173;SDS011;16985;50.814;8.530;2023-02-22T09:47:19;18.13;;;10.18;;
30173;SDS011;16985;50.814;8.530;2023-02-22T09:50:04;21.15;;;11.02;;
30173;SDS011;16985;50.814;8.530;2023-02-22T09:55:41;19.35;;;10.38;;
30173;SDS011;16985;50.814;8.530;2023-02-22T09:58:17;21.70;;;10.98;;
30173;SDS011;16985;50.814;8.530;2023-02-22T10:00:50;21.27;;;10.90;;
30173;SDS011;16985;50.814;8.530;2023-02-22T10:03:25;18.52;;;10.55;;
30173;SDS011;16985;50.814;8.530;2023-02-22T10:06:24;21.27;;;11.40;;
30173;SDS011;16985;50.814;8.530;2023-02-22T10:08:51;20.30;;;10.68;;
30173;SDS011;16985;50.814;8.530;2023-02-22T10:22:33;23.35;;;11.23;;
30173;SDS011;16985;50.814;8.530;2023-02-22T10:25:13;20.92;;;11.45;;
30173;SDS011;16985;50.814;8.530;2023-02-22T10:27:59;25.80;;;12.85;;
30173;SDS011;16985;50.814;8.530;2023-02-22T10:30:36;22.95;;;11.93;;
30173;SDS011;16985;50.814;8.530;2023-02-22T10:35:41;20.58;;;12.05;;
30173;SDS011;16985;50.814;8.530;2023-02-22T10:38:17;22.33;;;13.02;;
30173;SDS011;16985;50.814;8.530;2023-02-22T10:43:37;20.95;;;11.30;;
30173;SDS011;16985;50.814;8.530;2023-02-22T10:46:07;26.27;;;13.35;;
30173;SDS011;16985;50.814;8.530;2023-02-22T10:48:38;26.58;;;14.23;;
30173;SDS011;16985;50.814;8.530;2023-02-22T10:51:07;32.17;;;12.95;;
30173;SDS011;16985;50.814;8.530;2023-02-22T10:53:34;26.95;;;13.70;;
30173;SDS011;16985;50.814;8.530;2023-02-22T11:04:00;31.33;;;13.98;;
30173;SDS011;16985;50.814;8.530;2023-02-22T11:06:40;24.98;;;14.80;;
30173;SDS011;16985;50.814;8.530;2023-02-22T11:09:17;27.25;;;14.73;;
30173;SDS011;16985;50.814;8.530;2023-02-22T11:11:48;24.83;;;12.98;;
30173;SDS011;16985;50.814;8.530;2023-02-22T11:14:31;29.13;;;14.75;;
30173;SDS011;16985;50.814;8.530;2023-02-22T11:16:57;30.60;;;15.02;;
30173;SDS011;16985;50.814;8.530;2023-02-22T11:19:26;32.90;;;15.88;;
30173;SDS011;16985;50.814;8.530;2023-02-22T11:22:17;28.33;;;14.77;;
30173;SDS011;16985;50.814;8.530;2023-02-22T11:25:05;26.75;;;15.00;;
30173;SDS011;16985;50.814;8.530;2023-02-22T11:27:36;27.33;;;14.25;;
30173;SDS011;16985;50.814;8.530;2023-02-22T11:32:53;37.13;;;16.92;;
30173;SDS011;16985;50.814;8.530;2023-02-22T11:35:37;28.92;;;15.35;;
30173;SDS011;16985;50.814;8.530;2023-02-22T11:38:25;28.02;;;15.77;;
30173;SDS011;16985;50.814;8.530;2023-02-22T11:43:43;30.48;;;16.33;;
30173;SDS011;16985;50.814;8.530;2023-02-22T11:46:18;29.95;;;15.60;;
30173;SDS011;16985;50.814;8.530;2023-02-22T11:49:03;30.65;;;16.65;;
30173;SDS011;16985;50.814;8.530;2023-02-22T11:51:38;25.48;;;16.60;;
30173;SDS011;16985;50.814;8.530;2023-02-22T11:54:30;29.55;;;15.93;;
30173;SDS011;16985;50.814;8.530;2023-02-22T12:00:32;27.52;;;15.85;;
30173;SDS011;16985;50.814;8.530;2023-02-22T12:12:30;34.85;;;18.35;;
30173;SDS011;16985;50.814;8.530;2023-02-22T12:21:03;27.23;;;16.10;;
30173;SDS011;16985;50.814;8.530;2023-02-22T12:26:33;29.60;;;17.08;;
30173;SDS011;16985;50.814;8.530;2023-02-22T12:29:13;29.85;;;15.93;;
30173;SDS011;16985;50.814;8.530;2023-02-22T12:35:11;25.38;;;15.10;;
30173;SDS011;16985;50.814;8.530;2023-02-22T12:43:23;22.92;;;14.30;;
30173;SDS011;16985;50.814;8.530;2023-02-22T12:46:01;23.17;;;15.10;;
30173;SDS011;16985;50.814;8.530;2023-02-22T12:51:27;22.42;;;13.38;;
30173;SDS011;16985;50.814;8.530;2023-02-22T13:03:40;18.55;;;12.57;;
30173;SDS011;16985;50.814;8.530;2023-02-22T13:18:31;17.50;;;12.30;;
30173;SDS011;16985;50.814;8.530;2023-02-22T13:21:11;20.52;;;11.60;;
30173;SDS011;16985;50.814;8.530;2023-02-22T13:23:57;18.02;;;12.40;;
30173;SDS011;16985;50.814;8.530;2023-02-22T13:26:44;20.05;;;12.80;;
30173;SDS011;16985;50.814;8.530;2023-02-22T13:29:16;20.98;;;12.85;;
30173;SDS011;16985;50.814;8.530;2023-02-22T13:47:01;19.17;;;11.45;;
30173;SDS011;16985;50.814;8.530;2023-02-22T13:50:03;19.38;;;12.32;;
30173;SDS011;16985;50.814;8.530;2023-02-22T13:52:49;17.98;;;11.63;;
30173;SDS011;16985;50.814;8.530;2023-02-22T13:55:20;16.23;;;10.95;;
30173;SDS011;16985;50.814;8.530;2023-02-22T13:58:02;21.25;;;11.65;;
30173;SDS011;16985;50.814;8.530;2023-02-22T14:00:47;16.58;;;10.85;;
30173;SDS011;16985;50.814;8.530;2023-02-22T14:03:30;18.95;;;11.30;;
30173;SDS011;16985;50.814;8.530;2023-02-22T14:09:07;16.83;;;10.50;;
30173;SDS011;16985;50.814;8.530;2023-02-22T14:16:26;21.00;;;11.23;;
30173;SDS011;16985;50.814;8.530;2023-02-22T14:19:00;24.33;;;12.75;;
30173;SDS011;16985;50.814;8.530;2023-02-22T14:22:01;15.88;;;11.18;;
30173;SDS011;16985;50.814;8.530;2023-02-22T14:24:50;19.38;;;10.68;;
30173;SDS011;16985;50.814;8.530;2023-02-22T14:27:15;17.70;;;11.50;;
30173;SDS011;16985;50.814;8.530;2023-02-22T14:29:49;20.45;;;12.52;;
30173;SDS011;16985;50.814;8.530;2023-02-22T14:32:28;15.98;;;11.60;;
30173;SDS011;16985;50.814;8.530;2023-02-22T14:34:56;17.90;;;11.63;;
30173;SDS011;16985;50.814;8.530;2023-02-22T14:39:56;17.48;;;11.57;;
30173;SDS011;16985;50.814;8.530;2023-02-22T14:42:37;18.98;;;12.27;;
30173;SDS011;16985;50.814;8.530;2023-02-22T14:45:31;17.20;;;11.55;;
30173;SDS011;16985;50.814;8.530;2023-02-22T14:48:03;20.10;;;11.93;;
30173;SDS011;16985;50.814;8.530;2023-02-22T14:53:51;20.10;;;11.18;;
30173;SDS011;16985;50.814;8.530;2023-02-22T14:56:06;20.90;;;11.68;;
30173;SDS011;16985;50.814;8.530;2023-02-22T14:59:01;20.88;;;11.18;;
30173;SDS011;16985;50.814;8.530;2023-02-22T15:01:44;16.40;;;10.10;;
30173;SDS011;16985;50.814;8.530;2023-02-22T15:04:19;15.45;;;10.02;;
30173;SDS011;16985;50.814;8.530;2023-02-22T15:06:47;15.82;;;10.85;;
30173;SDS011;16985;50.814;8.530;2023-02-22T15:09:15;20.75;;;10.95;;
30173;SDS011;16985;50.814;8.530;2023-02-22T15:11:51;16.65;;;10.85;;
30173;SDS011;16985;50.814;8.530;2023-02-22T15:14:42;21.83;;;11.77;;
30173;SDS011;16985;50.814;8.530;2023-02-22T15:17:21;18.35;;;10.93;;
30173;SDS011;16985;50.814;8.530;2023-02-22T15:19:49;21.33;;;12.27;;
30173;SDS011;16985;50.814;8.530;2023-02-22T15:22:20;18.40;;;10.88;;
30173;SDS011;16985;50.814;8.530;2023-02-22T15:27:29;17.52;;;11.18;;
30173;SDS011;16985;50.814;8.530;2023-02-22T15:30:00;18.98;;;11.13;;
30173;SDS011;16985;50.814;8.530;2023-02-22T15:32:51;16.27;;;11.02;;
30173;SDS011;16985;50.814;8.530;2023-02-22T15:35:25;18.85;;;10.35;;
30173;SDS011;16985;50.814;8.530;2023-02-22T15:37:58;18.20;;;9.82;;
30173;SDS011;16985;50.814;8.530;2023-02-22T15:40:36;16.75;;;10.13;;
30173;SDS011;16985;50.814;8.530;2023-02-22T15:43:13;20.55;;;10.23;;
30173;SDS011;16985;50.814;8.530;2023-02-22T15:45:49;16.52;;;9.95;;
30173;SDS011;16985;50.814;8.530;2023-02-22T15:48:16;13.77;;;9.95;;
30173;SDS011;16985;50.814;8.530;2023-02-22T15:53:43;14.15;;;9.25;;
30173;SDS011;16985;50.814;8.530;2023-02-22T15:58:43;15.82;;;9.80;;
30173;SDS011;16985;50.814;8.530;2023-02-22T16:01:12;16.25;;;9.35;;
30173;SDS011;16985;50.814;8.530;2023-02-22T16:03:44;11.52;;;8.98;;
30173;SDS011;16985;50.814;8.530;2023-02-22T16:06:19;14.65;;;9.73;;
30173;SDS011;16985;50.814;8.530;2023-02-22T16:09:00;16.90;;;10.70;;
30173;SDS011;16985;50.814;8.530;2023-02-22T16:11:38;16.00;;;10.00;;
30173;SDS011;16985;50.814;8.530;2023-02-22T16:17:18;19.75;;;10.85;;
30173;SDS011;16985;50.814;8.530;2023-02-22T16:27:54;16.02;;;10.88;;
30173;SDS011;16985;50.814;8.530;2023-02-22T16:30:29;16.25;;;10.35;;
30173;SDS011;16985;50.814;8.530;2023-02-22T16:33:04;12.52;;;8.93;;
30173;SDS011;16985;50.814;8.530;2023-02-22T16:35:40;20.00;;;10.75;;
30173;SDS011;16985;50.814;8.530;2023-02-22T16:38:15;15.95;;;10.35;;
30173;SDS011;16985;50.814;8.530;2023-02-22T16:40:46;21.60;;;9.73;;
30173;SDS011;16985;50.814;8.530;2023-02-22T16:43:17;15.25;;;10.10;;
30173;SDS011;16985;50.814;8.530;2023-02-22T16:45:46;14.77;;;9.98;;
30173;SDS011;16985;50.814;8.530;2023-02-22T16:48:14;16.00;;;8.65;;
30173;SDS011;16985;50.814;8.530;2023-02-22T16:50:48;16.65;;;9.68;;
30173;SDS011;16985;50.814;8.530;2023-02-22T16:53:17;14.95;;;9.50;;
30173;SDS011;16985;50.814;8.530;2023-02-22T16:55:46;15.90;;;9.52;;
30173;SDS011;16985;50.814;8.530;2023-02-22T16:58:13;57.25;;;32.17;;
30173;SDS011;16985;50.814;8.530;2023-02-22T17:00:41;38.30;;;23.05;;
30173;SDS011;16985;50.814;8.530;2023-02-22T17:03:14;34.75;;;18.83;;
30173;SDS011;16985;50.814;8.530;2023-02-22T17:05:42;31.67;;;14.88;;
30173;SDS011;16985;50.814;8.530;2023-02-22T17:08:08;31.40;;;15.02;;
30173;SDS011;16985;50.814;8.530;2023-02-22T17:10:34;24.88;;;12.25;;
30173;SDS011;16985;50.814;8.530;2023-02-22T17:13:01;17.15;;;10.30;;
30173;SDS011;16985;50.814;8.530;2023-02-22T17:15:31;18.52;;;9.25;;
30173;SDS011;16985;50.814;8.530;2023-02-22T17:18:00;15.13;;;9.45;;
30173;SDS011;16985;50.814;8.530;2023-02-22T17:20:35;24.08;;;9.82;;
30173;SDS011;16985;50.814;8.530;2023-02-22T17:23:05;18.15;;;9.75;;
30173;SDS011;16985;50.814;8.530;2023-02-22T17:25:41;17.92;;;9.32;;
30173;SDS011;16985;50.814;8.530;2023-02-22T17:28:14;18.33;;;8.40;;
30173;SDS011;16985;50.814;8.530;2023-02-22T17:30:41;17.38;;;10.07;;
30173;SDS011;16985;50.814;8.530;2023-02-22T17:33:09;25.02;;;13.60;;
30173;SDS011;16985;50.814;8.530;2023-02-22T17:35:40;27.30;;;15.75;;
30173;SDS011;16985;50.814;8.530;2023-02-22T17:38:06;35.13;;;18.73;;
30173;SDS011;16985;50.814;8.530;2023-02-22T17:40:36;35.88;;;18.88;;
30173;SDS011;16985;50.814;8.530;2023-02-22T17:43:05;40.90;;;21.42;;
30173;SDS011;16985;50.814;8.530;2023-02-22T17:45:37;43.60;;;22.60;;
30173;SDS011;16985;50.814;8.530;2023-02-22T17:48:05;45.50;;;21.10;;
30173;SDS011;16985;50.814;8.530;2023-02-22T17:50:33;40.20;;;21.00;;
30173;SDS011;16985;50.814;8.530;2023-02-22T17:53:02;37.38;;;20.98;;
30173;SDS011;16985;50.814;8.530;2023-02-22T17:55:28;29.30;;;18.20;;
30173;SDS011;16985;50.814;8.530;2023-02-22T17:57:55;32.95;;;18.90;;